createdAt,value
2022-12-09T00:01:18.818Z,20.90
2022-12-09T00:03:46.716Z,19.73
2022-12-09T00:06:22.126Z,19.63
2022-12-09T00:08:50.073Z,19.83
2022-12-09T00:11:18.221Z,20.87
2022-12-09T00:13:49.234Z,20.33
2022-12-09T00:16:16.685Z,21.23
2022-12-09T00:18:44.315Z,21.27
2022-12-09T00:21:25.785Z,20.97
2022-12-09T00:23:53.848Z,21.27
2022-12-09T00:26:22.340Z,21.07
2022-12-09T00:28:50.066Z,21.80
2022-12-09T00:31:37.875Z,19.80
2022-12-09T00:34:06.988Z,20.63
2022-12-09T00:36:35.191Z,21.13
2022-12-09T00:39:02.689Z,22.10
2022-12-09T00:41:30.558Z,20.93
2022-12-09T00:43:58.435Z,21.30
2022-12-09T00:46:26.011Z,22.40
2022-12-09T00:48:53.747Z,18.90
2022-12-09T00:51:22.394Z,20.37
2022-12-09T00:53:54.826Z,19.67
2022-12-09T00:56:23.541Z,20.50
2022-12-09T00:58:51.020Z,20.17
2022-12-09T01:01:19.717Z,21.30
2022-12-09T01:03:47.738Z,20.43
2022-12-09T01:06:17.605Z,19.53
2022-12-09T01:08:45.904Z,19.43
2022-12-09T01:11:17.342Z,18.17
2022-12-09T01:13:46.519Z,19.57
2022-12-09T01:16:15.213Z,20.67
2022-12-09T01:18:42.809Z,20.33
2022-12-09T01:21:10.227Z,19.73
2022-12-09T01:23:37.861Z,19.97
2022-12-09T01:26:06.783Z,20.30
2022-12-09T01:28:35.487Z,17.37
2022-12-09T01:31:13.383Z,20.43
2022-12-09T01:33:41.094Z,21.07
2022-12-09T01:36:10.023Z,19.93
2022-12-09T01:38:38.045Z,20.57
2022-12-09T01:41:06.603Z,19.73
2022-12-09T01:43:34.134Z,20.37
2022-12-09T01:46:02.040Z,20.57
2022-12-09T01:48:39.000Z,21.43
2022-12-09T01:51:13.916Z,20.33
2022-12-09T01:53:43.416Z,19.20
2022-12-09T01:56:16.999Z,19.40
2022-12-09T01:58:45.290Z,20.47
2022-12-09T02:01:12.923Z,19.57
2022-12-09T02:03:40.783Z,20.70
2022-12-09T02:06:08.749Z,20.80
2022-12-09T02:08:36.638Z,19.10
2022-12-09T02:11:14.277Z,19.27
2022-12-09T02:13:52.071Z,19.33
2022-12-09T02:16:22.044Z,19.53
2022-12-09T02:18:52.864Z,21.50
2022-12-09T02:21:27.209Z,19.33
2022-12-09T02:24:19.594Z,25.13
2022-12-09T02:26:58.112Z,21.60
2022-12-09T02:29:32.492Z,21.30
2022-12-09T02:32:09.712Z,20.13
2022-12-09T02:34:41.642Z,22.47
2022-12-09T02:37:18.315Z,20.17
2022-12-09T02:40:13.119Z,21.30
2022-12-09T02:42:43.681Z,20.70
2022-12-09T02:45:12.368Z,19.87
2022-12-09T02:47:45.470Z,19.93
2022-12-09T02:50:15.497Z,21.07
2022-12-09T02:52:43.419Z,64.90
2022-12-09T02:55:11.204Z,20.93
2022-12-09T02:57:41.176Z,22.47
2022-12-09T03:00:14.840Z,20.00
2022-12-09T03:02:44.930Z,22.20
2022-12-09T03:05:37.719Z,19.13
2022-12-09T03:08:14.586Z,20.20
2022-12-09T03:10:57.809Z,19.70
2022-12-09T03:13:44.027Z,20.83
2022-12-09T03:16:15.635Z,19.93
2022-12-09T03:18:45.876Z,21.00
2022-12-09T03:21:15.113Z,22.43
2022-12-09T03:23:44.498Z,22.83
2022-12-09T03:26:13.207Z,21.30
2022-12-09T03:28:46.441Z,21.07
2022-12-09T03:31:15.737Z,23.00
2022-12-09T03:33:45.587Z,20.70
2022-12-09T03:36:14.834Z,21.83
2022-12-09T03:38:43.314Z,22.53
2022-12-09T03:41:25.686Z,25.93
2022-12-09T03:44:14.095Z,23.27
2022-12-09T03:46:41.838Z,23.83
2022-12-09T03:49:09.826Z,23.10
2022-12-09T03:51:39.250Z,29.13
2022-12-09T03:54:27.030Z,26.30
2022-12-09T03:56:57.735Z,28.43
2022-12-09T03:59:26.258Z,24.87
2022-12-09T04:01:53.968Z,24.03
2022-12-09T04:04:21.828Z,25.87
2022-12-09T04:06:54.451Z,25.00
2022-12-09T04:09:22.387Z,27.10
2022-12-09T04:11:49.916Z,28.27
2022-12-09T04:14:17.763Z,24.13
2022-12-09T04:16:46.085Z,23.93
2022-12-09T04:19:13.928Z,26.93
2022-12-09T04:21:41.834Z,29.00
2022-12-09T04:34:49.028Z,27.03
2022-12-09T04:37:16.712Z,26.87
2022-12-09T04:39:44.228Z,27.53
2022-12-09T04:42:11.730Z,28.33
2022-12-09T04:44:39.298Z,25.73
2022-12-09T04:47:07.072Z,25.30
2022-12-09T04:49:34.519Z,26.20
2022-12-09T04:52:01.891Z,27.57
2022-12-09T04:54:29.505Z,26.00
2022-12-09T04:56:57.057Z,26.13
2022-12-09T04:59:24.552Z,26.53
2022-12-09T05:01:52.253Z,27.30
2022-12-09T05:04:19.864Z,28.93
2022-12-09T05:06:47.593Z,28.50
2022-12-09T05:09:15.967Z,27.23
2022-12-09T05:11:43.746Z,28.97
2022-12-09T05:14:11.362Z,26.67
2022-12-09T05:16:39.204Z,28.70
2022-12-09T05:19:07.094Z,28.50
2022-12-09T05:21:34.672Z,29.53
2022-12-09T05:24:05.169Z,27.30
2022-12-09T05:26:33.394Z,26.97
2022-12-09T05:29:00.874Z,30.07
2022-12-09T05:31:28.335Z,26.93
2022-12-09T05:33:56.265Z,30.93
2022-12-09T05:36:25.404Z,26.33
2022-12-09T05:38:53.368Z,27.67
2022-12-09T05:41:21.092Z,26.77
2022-12-09T05:43:48.951Z,29.23
2022-12-09T05:46:16.752Z,28.47
2022-12-09T05:48:44.495Z,30.20
2022-12-09T05:51:26.298Z,26.30
2022-12-09T05:53:54.190Z,28.70
2022-12-09T05:56:22.648Z,26.97
2022-12-09T05:58:50.982Z,26.50
2022-12-09T06:01:18.651Z,27.87
2022-12-09T06:03:50.260Z,28.97
2022-12-09T06:06:19.217Z,27.50
2022-12-09T06:08:47.464Z,29.43
2022-12-09T06:11:19.788Z,29.63
2022-12-09T06:13:48.432Z,27.37
2022-12-09T06:16:19.033Z,28.60
2022-12-09T06:18:47.590Z,29.33
2022-12-09T06:21:15.781Z,31.50
2022-12-09T06:23:43.780Z,27.90
2022-12-09T06:26:19.075Z,28.83
2022-12-09T06:28:46.901Z,26.40
2022-12-09T06:31:14.903Z,27.67
2022-12-09T06:33:59.556Z,26.90
2022-12-09T06:36:29.080Z,25.70
2022-12-09T06:38:58.800Z,27.57
2022-12-09T06:41:28.341Z,24.10
2022-12-09T06:43:57.864Z,25.77
2022-12-09T06:46:26.110Z,22.40
2022-12-09T06:48:54.380Z,26.83
2022-12-09T06:51:23.549Z,27.50
2022-12-09T06:53:51.352Z,28.37
2022-12-09T06:56:19.084Z,27.87
2022-12-09T06:58:47.477Z,28.30
2022-12-09T07:01:22.755Z,25.57
2022-12-09T07:03:52.408Z,24.37
2022-12-09T07:06:26.074Z,25.40
2022-12-09T07:08:54.076Z,28.80
2022-12-09T07:11:21.968Z,29.23
2022-12-09T07:13:49.749Z,25.07
2022-12-09T07:16:17.829Z,25.77
2022-12-09T07:18:45.526Z,23.27
2022-12-09T07:21:17.448Z,24.77
2022-12-09T07:23:45.464Z,25.00
2022-12-09T07:26:13.276Z,25.27
2022-12-09T07:28:42.685Z,24.13
2022-12-09T07:31:27.529Z,24.67
2022-12-09T07:33:56.479Z,23.53
2022-12-09T07:36:25.266Z,23.80
2022-12-09T07:38:56.506Z,26.07
2022-12-09T07:41:24.333Z,23.27
2022-12-09T07:43:52.320Z,26.00
2022-12-09T07:46:20.794Z,23.63
2022-12-09T07:48:49.388Z,23.53
2022-12-09T07:51:17.817Z,22.37
2022-12-09T07:53:46.040Z,26.70
2022-12-09T07:56:14.941Z,26.17
2022-12-09T07:58:43.092Z,21.47
2022-12-09T08:01:12.069Z,23.77
2022-12-09T08:03:40.455Z,24.30
2022-12-09T08:06:08.390Z,22.07
2022-12-09T08:08:36.015Z,21.57
2022-12-09T08:11:14.033Z,21.17
2022-12-09T08:13:45.085Z,20.17
2022-12-09T08:16:14.214Z,20.60
2022-12-09T08:18:43.015Z,20.77
2022-12-09T08:21:11.928Z,19.33
2022-12-09T08:23:40.226Z,21.20
2022-12-09T08:26:08.337Z,20.23
2022-12-09T08:28:35.869Z,19.80
2022-12-09T08:31:08.175Z,21.43
2022-12-09T08:33:36.365Z,21.90
2022-12-09T08:36:04.736Z,19.47
2022-12-09T08:38:32.707Z,25.57
2022-12-09T08:41:00.596Z,19.33
2022-12-09T08:43:28.407Z,17.57
2022-12-09T08:45:56.091Z,19.03
2022-12-09T08:48:23.833Z,21.17
2022-12-09T08:50:51.731Z,19.90
2022-12-09T08:53:19.217Z,22.90
2022-12-09T08:55:46.960Z,18.73
2022-12-09T08:58:14.803Z,20.37
2022-12-09T09:00:42.610Z,16.37
2022-12-09T09:03:10.541Z,20.37
2022-12-09T09:05:38.264Z,18.67
2022-12-09T09:08:05.908Z,19.47
2022-12-09T09:10:34.219Z,18.17
2022-12-09T09:13:01.760Z,20.97
2022-12-09T09:15:29.514Z,18.90
2022-12-09T09:17:57.385Z,21.00
2022-12-09T09:20:24.904Z,18.70
2022-12-09T09:22:55.152Z,17.27
2022-12-09T09:25:25.576Z,22.40
2022-12-09T09:27:53.109Z,23.57
2022-12-09T09:30:23.622Z,19.93
2022-12-09T09:32:51.969Z,19.43
2022-12-09T09:35:19.762Z,18.93
2022-12-09T09:37:47.725Z,17.97
2022-12-09T09:40:15.824Z,16.87
2022-12-09T09:42:48.503Z,16.53
2022-12-09T09:45:18.542Z,17.50
2022-12-09T09:47:49.469Z,15.87
2022-12-09T09:50:29.297Z,16.50
2022-12-09T09:52:57.620Z,15.17
2022-12-09T09:55:35.410Z,16.37
2022-12-09T09:58:06.014Z,14.77
2022-12-09T10:00:42.490Z,15.33
2022-12-09T10:03:13.031Z,15.23
2022-12-09T10:05:52.930Z,14.53
2022-12-09T10:08:20.920Z,13.00
2022-12-09T10:11:00.860Z,14.57
2022-12-09T10:13:28.627Z,14.40
2022-12-09T10:16:08.239Z,14.30
2022-12-09T10:18:54.520Z,13.23
2022-12-09T10:21:23.298Z,12.60
2022-12-09T10:23:51.159Z,15.23
2022-12-09T10:26:27.419Z,12.77
2022-12-09T10:28:58.693Z,17.53
2022-12-09T10:31:28.281Z,15.03
2022-12-09T10:33:56.553Z,13.63
2022-12-09T10:36:32.195Z,13.40
2022-12-09T10:39:03.140Z,15.47
2022-12-09T10:41:55.934Z,12.63
2022-12-09T10:44:27.535Z,12.83
2022-12-09T10:47:04.407Z,16.63
2022-12-09T10:49:32.403Z,15.80
2022-12-09T10:52:00.868Z,13.57
2022-12-09T10:54:28.461Z,13.23
2022-12-09T10:57:02.186Z,13.37
2022-12-09T10:59:31.419Z,13.70
2022-12-09T11:02:19.140Z,14.40
2022-12-09T11:04:47.203Z,16.20
2022-12-09T11:07:18.157Z,12.57
2022-12-09T11:09:45.788Z,15.00
2022-12-09T11:12:31.996Z,13.73
2022-12-09T11:15:27.909Z,14.40
2022-12-09T11:18:07.174Z,14.27
2022-12-09T11:20:36.574Z,12.60
2022-12-09T11:23:16.107Z,14.03
2022-12-09T11:26:01.873Z,11.97
2022-12-09T11:28:31.096Z,12.43
2022-12-09T11:33:54.147Z,12.00
2022-12-09T11:36:29.872Z,12.73
2022-12-09T11:39:28.116Z,13.70
2022-12-09T11:42:18.542Z,12.73
2022-12-09T11:44:49.618Z,13.97
2022-12-09T11:48:13.600Z,12.93
2022-12-09T11:50:26.097Z,11.73
2022-12-09T11:53:08.823Z,12.03
2022-12-09T11:55:38.482Z,13.23
2022-12-09T11:58:07.695Z,12.30
2022-12-09T12:00:38.109Z,11.80
2022-12-09T12:03:13.040Z,13.17
2022-12-09T12:05:42.682Z,12.27
2022-12-09T12:08:19.275Z,13.07
2022-12-09T12:10:48.617Z,12.77
2022-12-09T12:13:25.038Z,13.37
2022-12-09T12:16:06.805Z,11.20
2022-12-09T12:18:38.948Z,12.77
2022-12-09T12:21:19.132Z,12.00
2022-12-09T12:23:46.408Z,11.27
2022-12-09T12:26:24.536Z,13.03
2022-12-09T12:29:07.340Z,12.40
2022-12-09T12:31:44.110Z,13.07
2022-12-09T12:34:27.715Z,11.83
2022-12-09T12:37:07.056Z,14.03
2022-12-09T12:39:53.164Z,12.70
2022-12-09T12:42:39.078Z,12.40
2022-12-09T12:45:37.529Z,12.53
2022-12-09T12:48:08.983Z,13.87
2022-12-09T12:50:42.294Z,12.53
2022-12-09T12:53:21.831Z,13.03
2022-12-09T12:55:58.296Z,13.53
2022-12-09T12:58:25.647Z,12.73
2022-12-09T13:00:53.072Z,13.93
2022-12-09T13:03:28.509Z,13.17
2022-12-09T13:05:57.484Z,13.50
2022-12-09T13:08:34.141Z,12.73
2022-12-09T13:11:03.783Z,14.27
2022-12-09T13:13:33.231Z,14.27
2022-12-09T13:16:19.103Z,13.87
2022-12-09T13:18:46.931Z,13.07
2022-12-09T13:21:14.593Z,13.00
2022-12-09T13:23:44.968Z,14.67
2022-12-09T13:26:28.217Z,14.83
2022-12-09T13:28:58.314Z,26.70
2022-12-09T13:31:35.913Z,13.47
2022-12-09T13:34:03.316Z,12.33
2022-12-09T13:36:36.089Z,13.20
2022-12-09T13:39:04.395Z,12.37
2022-12-09T13:41:51.622Z,13.53
2022-12-09T13:44:19.151Z,15.00
2022-12-09T13:46:46.513Z,15.50
2022-12-09T13:49:21.042Z,14.70
2022-12-09T13:51:49.746Z,15.60
2022-12-09T13:54:17.880Z,14.83
2022-12-09T13:56:45.360Z,16.60
2022-12-09T13:59:31.350Z,14.30
2022-12-09T14:02:21.446Z,15.30
2022-12-09T14:05:00.576Z,16.83
2022-12-09T14:07:43.093Z,18.93
2022-12-09T14:10:29.279Z,15.70
2022-12-09T14:12:57.307Z,15.13
2022-12-09T14:15:24.667Z,14.67
2022-12-09T14:17:52.045Z,17.33
2022-12-09T14:20:19.453Z,15.23
2022-12-09T14:23:05.673Z,13.43
2022-12-09T14:25:35.968Z,12.93
2022-12-09T14:28:24.378Z,15.10
2022-12-09T14:30:56.041Z,16.60
2022-12-09T14:33:25.605Z,12.93
2022-12-09T14:35:57.177Z,14.60
2022-12-09T14:38:30.433Z,13.47
2022-12-09T14:41:04.043Z,13.90
2022-12-09T14:43:54.555Z,13.83
2022-12-09T14:46:23.946Z,13.33
2022-12-09T14:49:11.779Z,12.63
2022-12-09T14:51:50.195Z,14.30
2022-12-09T14:54:40.590Z,13.40
2022-12-09T14:57:17.530Z,14.80
2022-12-09T14:59:49.320Z,14.47
2022-12-09T15:02:24.519Z,12.83
2022-12-09T15:04:52.940Z,13.03
2022-12-09T15:07:25.073Z,15.00
2022-12-09T15:09:52.535Z,14.33
2022-12-09T15:12:21.613Z,14.00
2022-12-09T15:14:51.937Z,12.93
2022-12-09T15:17:25.496Z,14.03
2022-12-09T15:20:01.404Z,14.43
2022-12-09T15:22:32.103Z,13.87
2022-12-09T15:24:59.904Z,15.07
2022-12-09T15:27:27.385Z,15.03
2022-12-09T15:29:55.316Z,15.63
2022-12-09T15:32:27.291Z,15.53
2022-12-09T15:34:54.830Z,14.43
2022-12-09T15:37:29.324Z,17.03
2022-12-09T15:40:03.260Z,14.63
2022-12-09T15:42:32.216Z,15.10
2022-12-09T15:44:59.606Z,11.90
2022-12-09T15:47:41.035Z,15.77
2022-12-09T15:50:18.079Z,13.67
2022-12-09T15:53:09.059Z,13.40
2022-12-09T15:55:50.658Z,14.73
2022-12-09T15:58:26.855Z,15.27
2022-12-09T16:00:54.739Z,15.43
2022-12-09T16:03:26.939Z,17.17
2022-12-09T16:05:55.709Z,14.60
2022-12-09T16:08:24.317Z,17.43
2022-12-09T16:10:53.306Z,16.87
2022-12-09T16:13:21.443Z,15.77
2022-12-09T16:15:56.537Z,14.90
2022-12-09T16:18:28.299Z,16.70
2022-12-09T16:20:58.758Z,15.43
2022-12-09T16:23:26.446Z,17.13
2022-12-09T16:25:59.357Z,14.67
2022-12-09T16:28:31.592Z,15.20
2022-12-09T16:31:00.969Z,15.00
2022-12-09T16:33:29.283Z,13.67
2022-12-09T16:35:58.176Z,15.77
2022-12-09T16:38:28.734Z,15.67
2022-12-09T16:40:56.002Z,15.33
2022-12-09T16:43:24.684Z,16.73
2022-12-09T16:45:53.288Z,15.43
2022-12-09T16:48:21.620Z,15.57
2022-12-09T16:50:50.321Z,14.97
2022-12-09T16:53:19.443Z,17.93
2022-12-09T16:55:51.314Z,14.93
2022-12-09T16:58:18.733Z,16.57
2022-12-09T17:00:46.917Z,16.53
2022-12-09T17:03:43.593Z,16.27
2022-12-09T17:06:14.362Z,13.53
2022-12-09T17:08:41.786Z,16.33
2022-12-09T17:11:09.491Z,15.53
2022-12-09T17:13:36.935Z,14.90
2022-12-09T17:16:05.552Z,17.63
2022-12-09T17:18:33.263Z,15.87
2022-12-09T17:21:07.531Z,15.10
2022-12-09T17:23:39.714Z,15.70
2022-12-09T17:26:09.244Z,14.87
2022-12-09T17:28:37.283Z,15.80
2022-12-09T17:31:08.523Z,18.60
2022-12-09T17:33:35.970Z,15.20
2022-12-09T17:36:03.374Z,15.37
2022-12-09T17:38:30.756Z,16.30
2022-12-09T17:40:58.213Z,14.70
2022-12-09T17:43:25.528Z,16.03
2022-12-09T17:45:52.936Z,15.90
2022-12-09T17:48:20.403Z,16.83
2022-12-09T17:50:47.790Z,16.70
2022-12-09T17:53:15.071Z,16.03
2022-12-09T17:55:42.467Z,16.87
2022-12-09T17:58:09.857Z,13.87
2022-12-09T18:00:39.647Z,13.83
2022-12-09T18:03:17.871Z,15.13
2022-12-09T18:05:49.762Z,15.77
2022-12-09T18:08:18.189Z,17.33
2022-12-09T18:10:45.582Z,14.83
2022-12-09T18:13:12.923Z,15.27
2022-12-09T18:15:40.259Z,16.37
2022-12-09T18:18:07.666Z,15.10
2022-12-09T18:20:37.662Z,14.83
2022-12-09T18:23:05.196Z,15.10
2022-12-09T18:25:32.499Z,15.10
2022-12-09T18:27:59.841Z,16.40
2022-12-09T18:30:27.180Z,15.30
2022-12-09T18:32:54.525Z,15.13
2022-12-09T18:35:21.916Z,16.03
2022-12-09T18:37:49.212Z,15.80
2022-12-09T18:40:21.208Z,14.47
2022-12-09T18:42:49.204Z,14.73
2022-12-09T18:45:17.150Z,15.47
2022-12-09T18:47:44.580Z,14.47
2022-12-09T18:50:11.929Z,15.00
2022-12-09T18:52:40.942Z,14.37
2022-12-09T18:55:08.553Z,13.40
2022-12-09T18:57:36.014Z,15.13
2022-12-09T19:00:03.605Z,15.97
2022-12-09T19:02:31.009Z,16.47
2022-12-09T19:04:58.486Z,14.43
2022-12-09T19:07:31.994Z,13.17
2022-12-09T19:09:59.726Z,15.87
2022-12-09T19:12:46.419Z,15.73
2022-12-09T19:15:14.634Z,14.30
2022-12-09T19:17:42.693Z,15.93
2022-12-09T19:20:10.683Z,15.93
2022-12-09T19:22:38.103Z,14.70
2022-12-09T19:25:06.434Z,14.40
2022-12-09T19:27:33.829Z,16.73
2022-12-09T19:30:01.204Z,17.90
2022-12-09T19:32:52.348Z,16.57
2022-12-09T19:35:16.027Z,17.43
2022-12-09T19:37:43.399Z,18.30
2022-12-09T19:40:11.198Z,14.80
2022-12-09T19:42:39.773Z,16.53
2022-12-09T19:45:12.162Z,16.03
2022-12-09T19:47:41.433Z,17.30
2022-12-09T19:50:09.579Z,18.07
2022-12-09T19:52:37.183Z,16.50
2022-12-09T19:55:04.722Z,18.20
2022-12-09T19:57:32.103Z,17.97
2022-12-09T19:59:59.530Z,16.73
2022-12-09T20:02:27.012Z,19.57
2022-12-09T20:04:54.381Z,20.27
2022-12-09T20:07:21.742Z,18.53
2022-12-09T20:09:49.317Z,18.03
2022-12-09T20:12:16.706Z,16.73
2022-12-09T20:14:44.194Z,18.67
2022-12-09T20:17:11.739Z,19.70
2022-12-09T20:19:39.095Z,15.93
2022-12-09T20:22:06.593Z,18.20
2022-12-09T20:24:34.211Z,16.90
2022-12-09T20:27:01.640Z,17.47
2022-12-09T20:29:33.955Z,15.93
2022-12-09T20:32:04.697Z,16.43
2022-12-09T20:34:32.142Z,20.20
2022-12-09T20:36:59.694Z,17.90
2022-12-09T20:39:27.088Z,20.73
2022-12-09T20:41:54.477Z,18.83
2022-12-09T20:44:21.887Z,20.73
2022-12-09T20:46:50.269Z,19.33
2022-12-09T20:49:19.870Z,19.57
2022-12-09T20:51:48.703Z,20.80
2022-12-09T20:54:16.383Z,19.07
2022-12-09T20:56:43.804Z,18.63
2022-12-09T20:59:13.602Z,17.40
2022-12-09T21:01:41.785Z,20.03
2022-12-09T21:04:09.225Z,21.27
2022-12-09T21:06:37.676Z,18.60
2022-12-09T21:09:06.270Z,22.17
2022-12-09T21:11:34.013Z,19.47
2022-12-09T21:14:02.487Z,20.37
2022-12-09T21:16:33.433Z,23.17
2022-12-09T21:19:05.750Z,19.23
2022-12-09T21:21:34.396Z,21.57
2022-12-09T21:24:01.977Z,21.57
2022-12-09T21:26:29.835Z,21.13
2022-12-09T21:28:57.281Z,21.80
2022-12-09T21:31:26.131Z,22.70
2022-12-09T21:33:54.590Z,22.63
2022-12-09T21:36:23.510Z,22.60
2022-12-09T21:38:51.470Z,23.50
2022-12-09T21:41:20.787Z,21.13
2022-12-09T21:43:48.395Z,22.50
2022-12-09T21:46:18.867Z,24.27
2022-12-09T21:48:51.762Z,23.23
2022-12-09T21:51:20.142Z,23.47
2022-12-09T21:53:47.621Z,24.83
2022-12-09T21:56:19.472Z,21.87
2022-12-09T21:58:47.559Z,25.00
2022-12-09T22:01:14.942Z,22.63
2022-12-09T22:03:42.550Z,22.53
2022-12-09T22:06:10.851Z,22.07
2022-12-09T22:08:39.460Z,24.00
2022-12-09T22:11:11.014Z,20.63
2022-12-09T22:13:39.801Z,21.57
2022-12-09T22:16:28.344Z,22.03
2022-12-09T22:18:57.241Z,20.63
2022-12-09T22:21:26.777Z,19.93
2022-12-09T22:23:55.263Z,20.80
2022-12-09T22:26:23.442Z,20.80
2022-12-09T22:28:51.222Z,20.90
2022-12-09T22:31:28.417Z,23.73
2022-12-09T22:33:57.200Z,47.20
2022-12-09T22:36:24.676Z,23.07
2022-12-09T22:38:52.053Z,23.30
2022-12-09T22:41:21.069Z,25.13
2022-12-09T22:43:49.953Z,22.40
2022-12-09T22:46:21.965Z,24.53
2022-12-09T22:48:50.022Z,22.50
2022-12-09T22:51:27.852Z,20.50
2022-12-09T22:53:56.403Z,24.87
2022-12-09T22:56:24.893Z,20.50
2022-12-09T22:58:52.413Z,25.00
2022-12-09T23:01:25.886Z,22.07
2022-12-09T23:03:54.390Z,20.67
2022-12-09T23:06:21.900Z,21.13
2022-12-09T23:08:49.229Z,21.60
2022-12-09T23:11:21.098Z,22.80
2022-12-09T23:13:48.737Z,20.63
2022-12-09T23:16:18.013Z,20.60
2022-12-09T23:18:45.699Z,22.73
2022-12-09T23:21:17.537Z,22.07
2022-12-09T23:23:44.932Z,22.63
2022-12-09T23:26:13.684Z,20.40
2022-12-09T23:28:42.201Z,19.63
2022-12-09T23:31:11.076Z,21.00
2022-12-09T23:33:39.387Z,21.73
2022-12-09T23:36:17.321Z,23.37
2022-12-09T23:38:44.944Z,18.63
2022-12-09T23:41:12.790Z,21.73
2022-12-09T23:43:40.283Z,21.20
2022-12-09T23:46:15.195Z,24.93
2022-12-09T23:48:43.557Z,21.40
2022-12-09T23:51:18.131Z,20.77
2022-12-09T23:53:46.470Z,22.17
2022-12-09T23:56:23.481Z,20.97
2022-12-09T23:58:55.359Z,21.03
